createdAt,value
2022-11-16T00:03:55.888Z,10.25
2022-11-16T00:09:23.278Z,9.57
2022-11-16T00:14:32.401Z,10.60
2022-11-16T00:19:34.682Z,12.57
2022-11-16T00:24:38.485Z,9.63
2022-11-16T00:29:40.167Z,11.20
2022-11-16T00:34:42.234Z,9.67
2022-11-16T00:39:45.034Z,12.57
2022-11-16T00:44:47.650Z,9.63
2022-11-16T00:49:50.277Z,10.25
2022-11-16T00:54:52.816Z,10.88
2022-11-16T00:59:54.820Z,10.07
2022-11-16T01:04:57.844Z,8.67
2022-11-16T01:09:59.635Z,10.25
2022-11-16T01:15:08.922Z,13.37
2022-11-16T01:20:14.771Z,8.77
2022-11-16T01:25:18.831Z,9.40
2022-11-16T01:30:25.212Z,9.10
2022-11-16T01:35:42.508Z,10.43
2022-11-16T01:40:45.109Z,9.53
2022-11-16T01:45:47.153Z,10.20
2022-11-16T01:50:50.219Z,7.90
2022-11-16T01:55:57.155Z,9.27
2022-11-16T02:01:15.706Z,9.53
2022-11-16T02:06:26.406Z,10.73
2022-11-16T02:12:07.727Z,8.33
2022-11-16T02:17:33.516Z,10.77
2022-11-16T02:22:58.358Z,11.50
2022-11-16T02:28:12.022Z,8.00
2022-11-16T02:33:19.019Z,11.10
2022-11-16T02:38:29.747Z,11.43
2022-11-16T02:43:39.388Z,9.63
2022-11-16T02:48:48.253Z,11.20
2022-11-16T02:54:09.591Z,9.13
2022-11-16T02:59:17.546Z,10.97
2022-11-16T03:04:38.195Z,11.83
2022-11-16T03:09:46.245Z,9.57
2022-11-16T03:14:55.007Z,11.47
2022-11-16T03:20:02.584Z,12.57
2022-11-16T03:25:12.859Z,10.77
2022-11-16T03:30:24.629Z,11.40
2022-11-16T03:35:44.608Z,14.87
2022-11-16T03:40:49.692Z,15.17
2022-11-16T03:45:51.743Z,19.50
2022-11-16T03:50:55.788Z,17.30
2022-11-16T03:56:00.790Z,14.33
2022-11-16T04:01:05.911Z,16.97
2022-11-16T04:06:29.660Z,17.63
2022-11-16T04:11:50.074Z,18.30
2022-11-16T04:17:24.042Z,17.77
2022-11-16T04:22:51.702Z,19.17
2022-11-16T04:28:13.026Z,20.97
2022-11-16T04:33:35.959Z,20.30
2022-11-16T04:38:37.819Z,22.23
2022-11-16T04:43:42.454Z,25.93
2022-11-16T04:48:47.520Z,22.80
2022-11-16T04:53:54.146Z,24.33
2022-11-16T04:58:57.998Z,26.40
2022-11-16T05:04:02.386Z,25.07
2022-11-16T05:09:04.506Z,27.07
2022-11-16T05:14:08.173Z,24.10
2022-11-16T05:19:35.122Z,24.63
2022-11-16T05:24:39.789Z,27.67
2022-11-16T05:29:44.211Z,31.80
2022-11-16T05:34:56.062Z,31.67
2022-11-16T05:40:01.369Z,32.63
2022-11-16T05:45:18.436Z,35.07
2022-11-16T05:50:27.788Z,35.27
2022-11-16T05:55:42.385Z,36.03
2022-11-16T06:00:47.090Z,40.60
2022-11-16T06:05:55.811Z,37.23
2022-11-16T06:11:06.766Z,39.53
2022-11-16T06:16:10.952Z,42.43
2022-11-16T06:21:17.802Z,45.03
2022-11-16T06:26:19.804Z,39.83
2022-11-16T06:31:25.284Z,44.20
2022-11-16T06:36:30.933Z,40.67
2022-11-16T06:41:41.109Z,40.47
2022-11-16T06:46:44.347Z,40.50
2022-11-16T06:51:48.596Z,47.20
2022-11-16T06:56:50.418Z,41.40
2022-11-16T07:01:52.491Z,43.10
2022-11-16T07:06:57.065Z,47.13
2022-11-16T07:12:01.989Z,44.57
2022-11-16T07:17:09.934Z,38.70
2022-11-16T07:22:12.150Z,43.50
2022-11-16T07:27:16.488Z,43.10
2022-11-16T07:32:24.477Z,40.90
2022-11-16T07:37:36.961Z,43.60
2022-11-16T07:42:42.073Z,38.27
2022-11-16T07:47:53.488Z,42.47
2022-11-16T07:53:28.993Z,43.40
2022-11-16T07:58:35.851Z,45.30
2022-11-16T08:03:39.538Z,44.17
2022-11-16T08:08:47.432Z,44.60
2022-11-16T08:13:52.169Z,41.53
2022-11-16T08:18:54.995Z,42.53
2022-11-16T08:23:59.318Z,43.93
2022-11-16T08:29:02.116Z,40.67
2022-11-16T08:34:08.575Z,43.20
2022-11-16T08:39:17.903Z,39.43
2022-11-16T08:44:22.030Z,43.53
2022-11-16T08:49:31.759Z,44.10
2022-11-16T08:54:37.009Z,39.23
2022-11-16T08:59:40.175Z,39.20
2022-11-16T09:04:47.016Z,35.23
2022-11-16T09:09:51.178Z,37.67
2022-11-16T09:14:52.964Z,38.23
2022-11-16T09:19:57.675Z,33.13
2022-11-16T09:24:59.442Z,39.37
2022-11-16T09:30:05.267Z,34.53
2022-11-16T09:35:07.388Z,31.50
2022-11-16T09:40:12.061Z,39.63
2022-11-16T09:45:31.595Z,37.40
2022-11-16T09:50:53.633Z,32.50
2022-11-16T09:56:06.456Z,36.27
2022-11-16T10:01:33.569Z,33.83
2022-11-16T10:06:51.419Z,32.30
2022-11-16T10:12:18.325Z,34.53
2022-11-16T10:17:57.924Z,33.43
2022-11-16T10:23:35.709Z,36.10
2022-11-16T10:28:59.149Z,31.80
2022-11-16T10:34:03.671Z,31.70
2022-11-16T10:39:14.007Z,37.10
2022-11-16T10:44:27.453Z,36.27
2022-11-16T10:49:39.971Z,35.40
2022-11-16T10:54:44.442Z,37.20
2022-11-16T10:59:55.389Z,35.87
2022-11-16T11:05:03.130Z,33.83
2022-11-16T11:10:31.064Z,34.13
2022-11-16T11:15:33.815Z,31.93
2022-11-16T11:20:39.057Z,35.83
2022-11-16T11:25:49.732Z,31.50
2022-11-16T11:30:54.366Z,37.80
2022-11-16T11:35:58.334Z,31.17
2022-11-16T11:41:05.043Z,33.33
2022-11-16T11:46:15.581Z,33.33
2022-11-16T11:51:43.418Z,32.53
2022-11-16T11:56:47.764Z,34.33
2022-11-16T12:01:52.210Z,30.87
2022-11-16T12:07:34.451Z,30.23
2022-11-16T12:12:58.647Z,35.43
2022-11-16T12:18:06.496Z,29.90
2022-11-16T12:23:33.510Z,29.80
2022-11-16T12:28:51.518Z,27.93
2022-11-16T12:34:17.157Z,31.20
2022-11-16T12:39:34.009Z,29.00
2022-11-16T12:45:03.553Z,27.53
2022-11-16T12:50:30.423Z,29.63
2022-11-16T12:55:43.069Z,33.73
2022-11-16T13:01:19.669Z,28.50
2022-11-16T13:06:28.500Z,33.67
2022-11-16T13:11:35.900Z,29.40
2022-11-16T13:16:38.687Z,26.80
2022-11-16T13:22:05.687Z,25.03
2022-11-16T13:27:29.447Z,29.27
2022-11-16T13:32:42.655Z,29.80
2022-11-16T13:37:46.109Z,29.63
2022-11-16T13:43:00.981Z,28.47
2022-11-16T13:48:16.634Z,33.27
2022-11-16T13:58:55.675Z,32.13
2022-11-16T14:04:35.959Z,28.23
2022-11-16T14:09:45.541Z,27.73
2022-11-16T14:15:12.014Z,31.00
2022-11-16T14:20:22.269Z,25.57
2022-11-16T14:25:39.804Z,24.83
2022-11-16T14:31:24.787Z,25.90
2022-11-16T14:36:39.134Z,24.90
2022-11-16T14:41:44.629Z,24.20
2022-11-16T14:46:46.494Z,25.60
2022-11-16T14:51:57.308Z,25.50
2022-11-16T14:57:02.293Z,23.73
2022-11-16T15:02:21.162Z,23.00
2022-11-16T15:07:23.148Z,24.10
2022-11-16T15:12:43.131Z,23.47
2022-11-16T15:17:47.417Z,43.87
2022-11-16T15:22:54.838Z,31.50
2022-11-16T15:28:01.068Z,22.57
2022-11-16T15:33:13.055Z,21.20
2022-11-16T15:38:18.720Z,17.63
2022-11-16T15:43:25.378Z,16.70
2022-11-16T15:48:28.742Z,15.50
2022-11-16T15:53:41.304Z,16.63
2022-11-16T15:58:43.455Z,14.13
2022-11-16T16:03:56.005Z,14.13
2022-11-16T16:09:06.948Z,14.13
2022-11-16T16:14:21.801Z,14.23
2022-11-16T16:19:34.169Z,12.53
2022-11-16T16:24:42.419Z,14.33
2022-11-16T16:29:48.820Z,12.33
2022-11-16T16:34:51.990Z,12.13
2022-11-16T16:39:57.093Z,13.87
2022-11-16T16:44:59.668Z,14.03
2022-11-16T16:50:01.648Z,16.25
2022-11-16T16:55:04.168Z,15.03
2022-11-16T17:00:13.602Z,15.70
2022-11-16T17:05:15.827Z,14.27
2022-11-16T17:10:20.116Z,13.70
2022-11-16T17:15:27.458Z,13.47
2022-11-16T17:20:29.344Z,18.70
2022-11-16T17:25:35.889Z,13.07
2022-11-16T17:30:40.418Z,15.87
2022-11-16T17:35:55.173Z,15.97
2022-11-16T17:41:13.793Z,13.45
2022-11-16T17:46:20.255Z,12.37
2022-11-16T17:51:25.732Z,10.60
2022-11-16T17:56:30.883Z,13.30
2022-11-16T18:01:35.879Z,12.87
2022-11-16T18:06:38.213Z,15.37
2022-11-16T18:11:40.053Z,14.70
2022-11-16T18:16:44.519Z,14.70
2022-11-16T18:21:47.173Z,16.37
2022-11-16T18:26:53.786Z,20.90
2022-11-16T18:32:02.787Z,19.03
2022-11-16T18:37:06.303Z,15.00
2022-11-16T18:42:12.649Z,16.57
2022-11-16T18:47:14.377Z,18.07
2022-11-16T18:52:16.119Z,14.03
2022-11-16T18:57:17.978Z,17.00
2022-11-16T19:02:20.055Z,13.63
2022-11-16T19:07:26.917Z,14.80
2022-11-16T19:12:30.453Z,14.53
2022-11-16T19:17:48.160Z,14.33
2022-11-16T19:23:00.229Z,13.00
2022-11-16T19:28:07.396Z,11.23
2022-11-16T19:33:11.674Z,8.67
2022-11-16T19:38:13.900Z,12.20
2022-11-16T19:43:16.436Z,9.80
2022-11-16T19:48:18.234Z,12.73
2022-11-16T19:53:19.995Z,9.50
2022-11-16T19:58:21.860Z,10.40
2022-11-16T20:03:25.952Z,12.23
2022-11-16T20:08:30.103Z,11.27
2022-11-16T20:13:32.228Z,14.73
2022-11-16T20:18:37.315Z,14.83
2022-11-16T20:23:45.668Z,13.83
2022-11-16T20:28:51.137Z,13.63
2022-11-16T20:33:57.771Z,13.77
2022-11-16T20:39:17.376Z,13.57
2022-11-16T20:44:21.949Z,13.83
2022-11-16T20:49:25.780Z,13.03
2022-11-16T20:54:29.917Z,11.90
2022-11-16T20:59:31.927Z,13.57
2022-11-16T21:04:33.739Z,12.73
2022-11-16T21:09:55.503Z,14.33
2022-11-16T21:14:59.725Z,13.00
2022-11-16T21:20:25.822Z,13.60
2022-11-16T21:25:25.597Z,12.67
2022-11-16T21:30:27.277Z,15.47
2022-11-16T21:35:31.565Z,15.53
2022-11-16T21:40:36.439Z,14.60
2022-11-16T21:45:38.182Z,14.90
2022-11-16T21:50:40.085Z,15.07
2022-11-16T21:55:50.950Z,14.47
2022-11-16T22:00:56.725Z,16.00
2022-11-16T22:06:22.147Z,13.60
2022-11-16T22:11:26.029Z,14.57
2022-11-16T22:16:34.620Z,12.17
2022-11-16T22:21:36.328Z,11.40
2022-11-16T22:26:39.843Z,13.03
2022-11-16T22:31:41.502Z,15.23
2022-11-16T22:36:45.881Z,14.73
2022-11-16T22:41:52.440Z,14.37
2022-11-16T22:46:57.168Z,13.43
2022-11-16T22:51:58.896Z,13.03
2022-11-16T22:57:03.441Z,15.60
2022-11-16T23:02:08.685Z,11.80
2022-11-16T23:07:12.645Z,11.93
2022-11-16T23:12:35.265Z,12.60
2022-11-16T23:17:38.935Z,13.83
2022-11-16T23:22:59.292Z,12.03
2022-11-16T23:28:03.946Z,12.20
2022-11-16T23:33:07.959Z,10.20
2022-11-16T23:38:14.116Z,11.87
2022-11-16T23:43:34.401Z,10.50
2022-11-16T23:48:38.559Z,12.67
2022-11-16T23:53:44.814Z,9.77
2022-11-16T23:58:49.290Z,10.43
